createdAt,value
2022-08-21T00:00:28.920Z,18.30
2022-08-21T00:02:59.899Z,18.20
2022-08-21T00:05:27.581Z,18.10
2022-08-21T00:07:55.769Z,18.00
2022-08-21T00:10:23.536Z,17.90
2022-08-21T00:12:50.954Z,17.90
2022-08-21T00:15:23.911Z,17.80
2022-08-21T00:30:22.811Z,17.40
2022-08-21T00:32:51.636Z,17.30
2022-08-21T00:35:22.837Z,17.20
2022-08-21T00:37:50.560Z,17.10
2022-08-21T00:40:24.650Z,17.00
2022-08-21T00:42:53.237Z,17.00
2022-08-21T00:45:23.011Z,16.90
2022-08-21T00:47:51.301Z,16.90
2022-08-21T00:50:21.703Z,16.80
2022-08-21T00:52:52.238Z,16.80
2022-08-21T00:55:22.690Z,16.80
2022-08-21T00:57:57.837Z,16.70
2022-08-21T01:00:30.526Z,16.70
2022-08-21T01:03:00.344Z,16.70
2022-08-21T01:05:28.145Z,16.70
2022-08-21T01:07:56.107Z,16.60
2022-08-21T01:10:24.171Z,16.60
2022-08-21T01:12:57.069Z,16.60
2022-08-21T01:15:28.400Z,16.60
2022-08-21T01:17:55.764Z,16.60
2022-08-21T01:20:23.627Z,16.60
2022-08-21T01:23:02.566Z,16.60
2022-08-21T01:25:30.108Z,16.70
2022-08-21T01:28:00.028Z,16.70
2022-08-21T01:30:28.940Z,16.70
2022-08-21T01:32:57.174Z,16.70
2022-08-21T01:35:24.672Z,16.70
2022-08-21T01:37:52.429Z,16.70
2022-08-21T01:40:20.169Z,16.70
2022-08-21T01:42:47.620Z,16.60
2022-08-21T01:45:16.356Z,16.50
2022-08-21T01:47:44.604Z,16.50
2022-08-21T01:50:15.189Z,16.40
2022-08-21T01:52:42.683Z,16.40
2022-08-21T01:55:12.052Z,16.30
2022-08-21T01:57:39.687Z,16.30
2022-08-21T02:00:10.184Z,16.30
2022-08-21T02:02:37.855Z,16.30
2022-08-21T02:05:05.816Z,16.40
2022-08-21T02:07:42.639Z,16.40
2022-08-21T02:10:12.434Z,16.30
2022-08-21T02:12:39.649Z,16.20
2022-08-21T02:15:07.917Z,16.20
2022-08-21T02:17:39.698Z,16.20
2022-08-21T02:20:08.000Z,16.20
2022-08-21T02:22:35.225Z,16.20
2022-08-21T02:25:02.531Z,16.20
2022-08-21T02:27:29.697Z,16.20
2022-08-21T02:30:01.457Z,16.10
2022-08-21T02:32:28.640Z,16.10
2022-08-21T02:34:55.883Z,16.10
2022-08-21T02:37:24.520Z,16.10
2022-08-21T02:39:52.032Z,16.10
2022-08-21T02:42:19.323Z,16.10
2022-08-21T02:44:46.624Z,16.10
2022-08-21T02:47:15.317Z,16.10
2022-08-21T02:49:42.512Z,16.10
2022-08-21T02:52:09.705Z,16.00
2022-08-21T02:54:36.969Z,15.90
2022-08-21T02:57:04.193Z,15.90
2022-08-21T02:59:34.129Z,15.90
2022-08-21T03:02:01.553Z,15.80
2022-08-21T03:04:28.812Z,15.80
2022-08-21T03:06:56.101Z,15.80
2022-08-21T03:09:23.301Z,15.80
2022-08-21T03:11:51.015Z,15.70
2022-08-21T03:14:18.961Z,15.60
2022-08-21T03:16:46.276Z,15.60
2022-08-21T03:19:13.601Z,15.60
2022-08-21T03:21:40.819Z,15.50
2022-08-21T03:24:08.085Z,15.50
2022-08-21T03:26:35.486Z,15.50
2022-08-21T03:29:03.236Z,15.50
2022-08-21T03:31:30.452Z,15.40
2022-08-21T03:33:58.692Z,15.40
2022-08-21T03:36:26.021Z,15.50
2022-08-21T03:38:53.345Z,15.60
2022-08-21T03:41:20.754Z,15.60
2022-08-21T03:43:48.049Z,15.60
2022-08-21T03:46:15.301Z,15.50
2022-08-21T03:48:42.545Z,15.50
2022-08-21T03:51:09.859Z,15.40
2022-08-21T03:53:37.479Z,15.40
2022-08-21T03:56:05.925Z,15.40
2022-08-21T03:58:33.387Z,15.30
2022-08-21T04:01:01.609Z,15.30
2022-08-21T05:18:03.282Z,17.20
2022-08-21T05:20:30.548Z,18.50
2022-08-21T05:22:58.020Z,20.30
2022-08-21T05:25:30.122Z,23.50
2022-08-21T05:33:04.031Z,26.00
2022-08-21T05:35:32.765Z,26.90
2022-08-21T06:13:00.254Z,36.00
2022-08-21T06:32:42.025Z,28.60
2022-08-21T06:37:36.966Z,24.70
2022-08-21T10:13:23.332Z,24.70
2022-08-21T10:16:15.572Z,24.90
2022-08-21T10:19:11.559Z,25.00
2022-08-21T10:21:57.571Z,25.10
2022-08-21T10:24:38.765Z,25.10
2022-08-21T10:27:11.701Z,25.20
2022-08-21T10:30:01.915Z,25.30
2022-08-21T10:32:47.935Z,25.40
2022-08-21T10:35:21.936Z,25.50
2022-08-21T10:38:55.376Z,25.50
2022-08-21T10:41:38.005Z,25.20
2022-08-21T10:44:17.377Z,25.30
2022-08-21T10:47:02.751Z,25.30
2022-08-21T10:49:38.698Z,25.50
2022-08-21T10:52:37.085Z,25.70
2022-08-21T10:55:31.760Z,26.00
2022-08-21T10:58:05.895Z,26.20
2022-08-21T11:00:50.241Z,26.40
2022-08-21T11:03:39.092Z,26.70
2022-08-21T11:06:18.399Z,26.90
2022-08-21T11:08:50.945Z,27.00
2022-08-21T11:11:25.581Z,27.10
2022-08-21T11:14:10.555Z,27.10
2022-08-21T11:16:38.891Z,27.10
2022-08-21T11:19:12.615Z,27.10
2022-08-21T11:21:49.420Z,27.00
2022-08-21T11:24:23.552Z,26.80
2022-08-21T11:27:11.066Z,26.80
2022-08-21T11:29:41.069Z,26.70
2022-08-21T11:32:52.046Z,26.50
2022-08-21T11:35:50.802Z,26.30
2022-08-21T11:38:31.540Z,26.40
2022-08-21T11:41:01.942Z,26.30
2022-08-21T11:43:49.053Z,26.40
2022-08-21T11:46:29.122Z,26.50
2022-08-21T11:49:05.248Z,26.50
2022-08-21T11:51:47.033Z,26.80
2022-08-21T11:54:29.244Z,26.90
2022-08-21T11:57:08.635Z,26.90
2022-08-21T11:59:48.014Z,26.70
2022-08-21T12:02:20.681Z,26.90
2022-08-21T12:04:56.931Z,26.80
2022-08-21T12:07:39.550Z,27.10
2022-08-21T12:10:14.229Z,27.00
2022-08-21T12:12:45.600Z,27.20
2022-08-21T12:15:15.532Z,27.40
2022-08-21T12:18:03.767Z,27.50
2022-08-21T12:20:31.020Z,27.60
2022-08-21T12:23:13.120Z,27.70
2022-08-21T12:26:00.417Z,27.70
2022-08-21T12:28:29.615Z,27.80
2022-08-21T12:30:58.283Z,27.80
2022-08-21T12:33:38.632Z,27.40
2022-08-21T12:36:13.606Z,27.40
2022-08-21T12:38:50.127Z,27.20
2022-08-21T12:41:25.409Z,27.10
2022-08-21T12:44:10.014Z,27.20
2022-08-21T12:47:04.790Z,27.20
2022-08-21T12:49:45.371Z,27.40
2022-08-21T12:52:20.268Z,27.20
2022-08-21T12:54:47.785Z,27.20
2022-08-21T12:57:24.984Z,27.20
2022-08-21T13:00:02.081Z,27.50
2022-08-21T13:02:37.176Z,27.60
2022-08-21T13:05:07.685Z,27.80
2022-08-21T13:07:37.729Z,27.90
2022-08-21T13:10:24.235Z,28.00
2022-08-21T13:12:55.056Z,28.10
2022-08-21T13:15:47.525Z,28.10
2022-08-21T13:18:27.389Z,28.10
2022-08-21T13:21:14.713Z,28.10
2022-08-21T13:23:42.383Z,27.90
2022-08-21T13:26:21.881Z,27.90
2022-08-21T13:28:50.875Z,28.00
2022-08-21T13:31:23.271Z,28.10
2022-08-21T13:33:51.809Z,28.20
2022-08-21T13:36:33.443Z,28.30
2022-08-21T13:39:00.930Z,28.10
2022-08-21T13:41:30.929Z,28.30
2022-08-21T13:44:20.844Z,28.10
2022-08-21T13:46:50.839Z,28.20
2022-08-21T13:49:22.225Z,28.20
2022-08-21T13:51:49.849Z,28.30
2022-08-21T13:54:27.085Z,28.40
2022-08-21T13:56:55.185Z,28.60
2022-08-21T13:59:36.599Z,28.90
2022-08-21T14:02:21.319Z,29.00
2022-08-21T14:05:02.903Z,29.00
2022-08-21T14:07:38.153Z,29.00
2022-08-21T14:10:16.339Z,29.20
2022-08-21T14:12:49.073Z,29.40
2022-08-21T14:15:18.603Z,29.60
2022-08-21T14:17:47.645Z,29.90
2022-08-21T14:20:32.670Z,29.90
2022-08-21T14:23:00.720Z,30.00
2022-08-21T14:25:46.644Z,30.10
2022-08-21T14:28:31.239Z,30.40
2022-08-21T14:31:00.398Z,30.10
2022-08-21T14:33:33.708Z,30.00
2022-08-21T14:36:01.042Z,30.00
2022-08-21T14:38:28.757Z,30.00
2022-08-21T14:41:00.782Z,30.10
2022-08-21T14:43:28.845Z,30.00
2022-08-21T14:45:56.675Z,30.00
2022-08-21T14:48:24.091Z,29.90
2022-08-21T14:50:58.429Z,29.40
2022-08-21T14:53:27.935Z,29.20
2022-08-21T14:55:55.323Z,28.90
2022-08-21T14:58:22.992Z,28.80
2022-08-21T15:00:51.907Z,28.50
2022-08-21T15:03:20.012Z,28.50
2022-08-21T15:05:47.218Z,28.30
2022-08-21T15:08:14.519Z,28.40
2022-08-21T15:11:08.229Z,28.50
2022-08-21T15:13:30.053Z,28.60
2022-08-21T15:15:57.789Z,28.60
2022-08-21T15:18:29.645Z,28.30
2022-08-21T15:20:56.970Z,28.30
2022-08-21T15:23:24.795Z,28.10
2022-08-21T15:25:55.528Z,28.10
2022-08-21T15:28:23.031Z,28.10
2022-08-21T15:30:51.550Z,27.80
2022-08-21T15:33:19.900Z,27.90
2022-08-21T15:35:47.245Z,27.80
2022-08-21T15:38:15.865Z,27.60
2022-08-21T15:40:52.020Z,27.80
2022-08-21T15:43:48.404Z,27.90
2022-08-21T15:46:18.076Z,28.10
2022-08-21T15:48:45.785Z,28.00
2022-08-21T15:51:14.371Z,28.10
2022-08-21T15:53:41.808Z,28.20
2022-08-21T15:56:22.306Z,28.30
2022-08-21T15:58:53.130Z,28.40
2022-08-21T16:01:22.492Z,28.40
2022-08-21T16:03:53.452Z,28.30
2022-08-21T16:06:37.400Z,28.20
2022-08-21T16:09:06.065Z,28.00
2022-08-21T16:11:36.701Z,27.80
2022-08-21T16:16:34.342Z,27.20
2022-08-21T16:19:04.055Z,27.10
2022-08-21T16:21:31.345Z,27.10
2022-08-21T16:23:58.588Z,27.00
2022-08-21T16:26:26.903Z,26.90
2022-08-21T16:28:57.507Z,26.80
2022-08-21T16:31:26.590Z,26.90
2022-08-21T16:33:57.851Z,26.90
2022-08-21T16:36:26.752Z,26.90
2022-08-21T16:38:58.849Z,26.80
2022-08-21T16:41:33.869Z,26.90
2022-08-21T16:44:02.024Z,26.80
2022-08-21T16:46:35.820Z,26.80
2022-08-21T16:49:03.870Z,26.90
2022-08-21T16:51:31.330Z,26.70
2022-08-21T16:53:59.291Z,26.60
2022-08-21T17:31:22.974Z,25.30
2022-08-21T17:33:52.919Z,25.10
2022-08-21T17:36:28.976Z,25.00
2022-08-21T17:38:57.323Z,25.10
2022-08-21T17:41:25.531Z,25.10
2022-08-21T17:43:53.340Z,24.90
2022-08-21T17:46:27.935Z,24.80
2022-08-21T17:48:56.122Z,24.80
2022-08-21T17:51:24.172Z,24.70
2022-08-21T17:53:51.475Z,24.60
2022-08-21T17:56:19.524Z,24.50
2022-08-21T17:58:51.401Z,24.40
2022-08-21T18:01:20.356Z,24.30
2022-08-21T18:03:48.891Z,24.20
2022-08-21T18:06:17.997Z,24.10
2022-08-21T18:08:46.504Z,24.00
2022-08-21T18:11:23.780Z,23.90
2022-08-21T18:13:52.767Z,23.70
2022-08-21T18:16:20.669Z,23.70
2022-08-21T18:18:49.174Z,23.60
2022-08-21T18:21:16.789Z,23.50
2022-08-21T18:23:45.140Z,23.40
2022-08-21T18:26:20.914Z,23.40
2022-08-21T18:28:48.422Z,23.30
2022-08-21T18:31:15.685Z,23.20
